Time;durP1;ratioP1;P1;durP2;ratioP2;P2;SDS_P1;SDS_P2;PMS_P1;PMS_P2;Temp;Humidity;BMP_temperature;BMP_pressure;BME280_temperature;BME280_humidity;BME280_pressure;Samples;Min_cycle;Max_cycle;Signal;HPM_P1;HPM_P2
2020/12/05 00:00:21;;;;;;;18.33;12.80;;;;;;;;;;2088032;28;20217;-51
2020/12/05 00:01:22;;;;;;;19.60;13.57;;;;;;;;;;2081658;28;20183;-57
2020/12/05 00:02:22;;;;;;;16.60;13.00;;;;;;;;;;2089140;28;20686;-52
2020/12/05 00:03:22;;;;;;;16.80;12.17;;;;;;;;;;2080442;28;20184;-54
2020/12/05 00:04:22;;;;;;;18.47;13.13;;;;;;;;;;2080882;28;20196;-53
2020/12/05 00:05:23;;;;;;;21.20;14.60;;;;;;;;;;2088376;28;20210;-53
2020/12/05 00:06:23;;;;;;;20.53;13.70;;;;;;;;;;2089789;28;20179;-53
2020/12/05 00:07:23;;;;;;;21.60;13.60;;;;;;;;;;2079600;28;20617;-50
2020/12/05 00:08:23;;;;;;;21.33;13.67;;;;;;;;;;2080086;28;20202;-56
2020/12/05 00:09:24;;;;;;;17.67;13.47;;;;;;;;;;2089131;28;20731;-52
2020/12/05 00:10:26;;;;;;;19.50;13.97;;;;;;;;;;2089068;28;20175;-51
2020/12/05 00:11:27;;;;;;;23.10;13.97;;;;;;;;;;2088902;28;20198;-51
2020/12/05 00:12:27;;;;;;;17.13;13.37;;;;;;;;;;2088615;28;20183;-52
2020/12/05 00:13:27;;;;;;;16.43;12.50;;;;;;;;;;2081055;28;20175;-52
2020/12/05 00:14:28;;;;;;;18.97;13.07;;;;;;;;;;2080622;28;20235;-52
2020/12/05 00:15:28;;;;;;;21.27;13.37;;;;;;;;;;2088515;28;20195;-57
2020/12/05 00:16:28;;;;;;;20.23;13.13;;;;;;;;;;2087431;28;20210;-55
2020/12/05 00:17:31;;;;;;;19.77;13.10;;;;;;;;;;2077773;28;20172;-54
2020/12/05 00:18:31;;;;;;;16.87;11.83;;;;;;;;;;2078395;28;20302;-55
2020/12/05 00:19:31;;;;;;;17.73;12.17;;;;;;;;;;2087670;28;20233;-53
2020/12/05 00:20:32;;;;;;;17.83;13.17;;;;;;;;;;2086996;28;20183;-53
2020/12/05 00:21:32;;;;;;;18.73;12.33;;;;;;;;;;2089017;28;20206;-55
2020/12/05 00:22:32;;;;;;;19.80;13.10;;;;;;;;;;2085810;28;20180;-55
2020/12/05 00:23:32;;;;;;;19.80;13.17;;;;;;;;;;2088370;28;20250;-58
2020/12/05 00:24:33;;;;;;;20.43;13.20;;;;;;;;;;2079977;28;20550;-57
2020/12/05 00:25:33;;;;;;;20.13;12.93;;;;;;;;;;2080575;28;20213;-54
2020/12/05 00:26:33;;;;;;;17.97;11.47;;;;;;;;;;2079965;28;20640;-52
2020/12/05 00:27:33;;;;;;;18.03;12.90;;;;;;;;;;2079925;28;20180;-54
2020/12/05 00:28:34;;;;;;;15.73;12.27;;;;;;;;;;2088753;28;20188;-52
2020/12/05 00:29:34;;;;;;;18.63;14.67;;;;;;;;;;2089671;28;20163;-53
2020/12/05 00:30:34;;;;;;;18.13;13.93;;;;;;;;;;2087596;28;20261;-52
2020/12/05 00:31:34;;;;;;;23.30;17.87;;;;;;;;;;2080720;28;20203;-53
2020/12/05 00:32:34;;;;;;;26.87;17.97;;;;;;;;;;2079563;28;20180;-53
2020/12/05 00:33:35;;;;;;;27.90;20.40;;;;;;;;;;2088182;28;20274;-52
2020/12/05 00:34:35;;;;;;;24.57;15.37;;;;;;;;;;2080609;28;20179;-56
2020/12/05 00:35:35;;;;;;;25.27;18.83;;;;;;;;;;2082039;28;20219;-58
2020/12/05 00:36:35;;;;;;;22.30;16.27;;;;;;;;;;2090822;28;20230;-60
2020/12/05 00:37:36;;;;;;;17.93;13.30;;;;;;;;;;2091163;28;20180;-58
2020/12/05 00:38:36;;;;;;;23.03;15.60;;;;;;;;;;2089326;28;20609;-58
2020/12/05 00:39:37;;;;;;;18.00;13.47;;;;;;;;;;2090816;28;20171;-56
2020/12/05 00:40:37;;;;;;;23.77;17.03;;;;;;;;;;2086891;28;20204;-57
2020/12/05 00:41:37;;;;;;;20.47;14.80;;;;;;;;;;2091058;28;20655;-57
2020/12/05 00:42:37;;;;;;;20.77;12.70;;;;;;;;;;2089769;28;20184;-55
2020/12/05 00:43:38;;;;;;;16.60;13.03;;;;;;;;;;2080682;28;20180;-53
2020/12/05 00:44:38;;;;;;;17.33;13.23;;;;;;;;;;2080518;28;20168;-57
2020/12/05 00:45:38;;;;;;;20.10;13.97;;;;;;;;;;2087973;28;20675;-57
2020/12/05 00:46:41;;;;;;;21.70;16.20;;;;;;;;;;2089548;28;20182;-51
2020/12/05 00:47:42;;;;;;;18.23;12.77;;;;;;;;;;2071666;28;20191;-54
2020/12/05 00:48:42;;;;;;;16.23;12.20;;;;;;;;;;2072493;28;20200;-53
2020/12/05 00:49:43;;;;;;;17.23;12.80;;;;;;;;;;2066916;28;20320;-54
2020/12/05 00:50:43;;;;;;;18.10;13.43;;;;;;;;;;2079648;28;20676;-52
2020/12/05 00:51:47;;;;;;;15.67;12.80;;;;;;;;;;2079873;28;20179;-53
2020/12/05 00:52:47;;;;;;;20.03;14.07;;;;;;;;;;2078416;28;20994;-53
2020/12/05 00:53:49;;;;;;;19.30;13.20;;;;;;;;;;2080233;28;20271;-55
2020/12/05 00:54:51;;;;;;;14.97;12.83;;;;;;;;;;2071483;28;20185;-55
2020/12/05 00:55:51;;;;;;;18.17;13.60;;;;;;;;;;2069615;28;20212;-54
2020/12/05 00:56:52;;;;;;;17.13;12.73;;;;;;;;;;2080410;28;20688;-56
2020/12/05 00:57:52;;;;;;;19.37;13.00;;;;;;;;;;2088479;28;20634;-52
2020/12/05 00:58:52;;;;;;;20.53;13.37;;;;;;;;;;2089226;28;20251;-54
2020/12/05 00:59:52;;;;;;;17.63;13.20;;;;;;;;;;2089262;28;20178;-53
2020/12/05 01:00:53;;;;;;;17.63;13.47;;;;;;;;;;2088662;28;20678;-52
2020/12/05 01:01:54;;;;;;;17.80;12.83;;;;;;;;;;2088209;28;20171;-57
2020/12/05 01:02:54;;;;;;;16.60;12.60;;;;;;;;;;2088987;28;20176;-54
2020/12/05 01:03:54;;;;;;;18.40;14.00;;;;;;;;;;2089170;28;20169;-49
2020/12/05 01:04:54;;;;;;;17.20;12.77;;;;;;;;;;2089193;28;20188;-53
2020/12/05 01:05:54;;;;;;;18.13;13.13;;;;;;;;;;2088844;28;20183;-50
2020/12/05 01:06:55;;;;;;;16.17;12.63;;;;;;;;;;2080459;28;20184;-54
2020/12/05 01:07:55;;;;;;;20.73;13.33;;;;;;;;;;2079392;28;20519;-52
2020/12/05 01:08:55;;;;;;;18.27;13.60;;;;;;;;;;2087821;28;20188;-58
2020/12/05 01:09:56;;;;;;;16.90;12.90;;;;;;;;;;2087540;28;20206;-54
2020/12/05 01:10:56;;;;;;;18.67;13.33;;;;;;;;;;2083351;28;20262;-53
2020/12/05 01:11:56;;;;;;;19.63;14.20;;;;;;;;;;2086535;28;20229;-56
2020/12/05 01:12:57;;;;;;;20.13;14.10;;;;;;;;;;2084359;28;20230;-52
2020/12/05 01:13:57;;;;;;;17.63;12.87;;;;;;;;;;2090715;28;20218;-55
2020/12/05 01:15:01;;;;;;;16.43;12.73;;;;;;;;;;2091172;28;20214;-52
2020/12/05 01:16:01;;;;;;;16.60;12.90;;;;;;;;;;2089410;28;20179;-53
2020/12/05 01:17:01;;;;;;;16.87;13.00;;;;;;;;;;2089843;28;20186;-55
2020/12/05 01:18:02;;;;;;;20.03;14.33;;;;;;;;;;2087340;28;20179;-59
2020/12/05 01:19:02;;;;;;;18.80;12.47;;;;;;;;;;2081867;28;20303;-58
2020/12/05 01:20:04;;;;;;;16.67;13.00;;;;;;;;;;2081577;28;20216;-56
2020/12/05 01:21:06;;;;;;;17.77;12.93;;;;;;;;;;2081402;28;20169;-56
2020/12/05 01:22:06;;;;;;;19.00;14.03;;;;;;;;;;2080804;28;20235;-53
2020/12/05 01:23:07;;;;;;;17.87;13.77;;;;;;;;;;2090830;28;20237;-53
2020/12/05 01:24:07;;;;;;;15.23;12.10;;;;;;;;;;2090340;28;20232;-56
2020/12/05 01:25:08;;;;;;;15.80;13.73;;;;;;;;;;2090498;28;20554;-56
2020/12/05 01:26:08;;;;;;;19.87;13.97;;;;;;;;;;2091110;28;20180;-53
2020/12/05 01:27:09;;;;;;;17.00;13.27;;;;;;;;;;2090613;28;20186;-56
2020/12/05 01:28:09;;;;;;;17.70;13.53;;;;;;;;;;2091215;28;20168;-53
2020/12/05 01:29:09;;;;;;;20.40;13.63;;;;;;;;;;2090984;28;20245;-53
2020/12/05 01:30:10;;;;;;;16.77;12.97;;;;;;;;;;2091152;28;20171;-53
2020/12/05 01:31:10;;;;;;;18.53;14.07;;;;;;;;;;2090840;28;20175;-54
2020/12/05 01:32:11;;;;;;;18.27;13.37;;;;;;;;;;2090849;28;20639;-55
2020/12/05 01:33:11;;;;;;;19.60;13.80;;;;;;;;;;2090830;28;20229;-58
2020/12/05 01:34:11;;;;;;;14.30;11.83;;;;;;;;;;2091105;28;20179;-57
2020/12/05 01:35:11;;;;;;;16.20;12.63;;;;;;;;;;2091399;28;20203;-55
2020/12/05 01:36:12;;;;;;;17.43;12.50;;;;;;;;;;2091812;28;20179;-52
2020/12/05 01:37:12;;;;;;;16.27;11.83;;;;;;;;;;2092196;28;20164;-53
2020/12/05 01:38:12;;;;;;;16.67;12.53;;;;;;;;;;2092860;28;20792;-53
2020/12/05 01:39:13;;;;;;;17.30;13.13;;;;;;;;;;2092712;28;20222;-56
2020/12/05 01:40:13;;;;;;;18.17;12.77;;;;;;;;;;2084044;28;20255;-52
2020/12/05 01:41:13;;;;;;;17.97;12.57;;;;;;;;;;2084087;28;20180;-52
2020/12/05 01:42:13;;;;;;;16.67;12.70;;;;;;;;;;2083710;28;20168;-53
2020/12/05 01:43:14;;;;;;;18.27;12.73;;;;;;;;;;2082764;28;20172;-55
2020/12/05 01:44:14;;;;;;;16.67;11.83;;;;;;;;;;2089115;28;20179;-56
2020/12/05 01:45:14;;;;;;;19.37;14.00;;;;;;;;;;2090189;28;20278;-54
2020/12/05 01:46:24;;;;;;;18.47;13.30;;;;;;;;;;2090586;28;20313;-54
2020/12/05 01:47:26;;;;;;;17.43;11.80;;;;;;;;;;2081920;28;20170;-52
2020/12/05 01:48:27;;;;;;;14.83;12.27;;;;;;;;;;2071627;28;20223;-54
2020/12/05 01:49:27;;;;;;;16.73;12.47;;;;;;;;;;2078968;28;20434;-52
2020/12/05 01:50:27;;;;;;;15.50;12.23;;;;;;;;;;2090648;28;20204;-53
2020/12/05 01:51:28;;;;;;;17.80;12.47;;;;;;;;;;2089430;28;20303;-53
2020/12/05 01:52:29;;;;;;;15.07;12.20;;;;;;;;;;2087546;28;20180;-54
2020/12/05 01:53:30;;;;;;;17.50;13.13;;;;;;;;;;2088179;28;20178;-55
2020/12/05 01:54:30;;;;;;;17.23;12.57;;;;;;;;;;2089507;28;20167;-58
2020/12/05 01:55:30;;;;;;;18.47;14.03;;;;;;;;;;2081535;28;20279;-54
2020/12/05 01:56:31;;;;;;;15.53;12.17;;;;;;;;;;2081282;28;20237;-56
2020/12/05 01:57:31;;;;;;;15.33;12.33;;;;;;;;;;2080360;28;20663;-55
2020/12/05 01:58:31;;;;;;;14.20;11.83;;;;;;;;;;2081544;28;20227;-54
2020/12/05 01:59:31;;;;;;;16.23;13.03;;;;;;;;;;2081976;28;20175;-52
2020/12/05 02:00:32;;;;;;;17.00;13.00;;;;;;;;;;2081077;28;20173;-52
2020/12/05 02:01:32;;;;;;;13.43;11.93;;;;;;;;;;2089595;28;20621;-52
2020/12/05 02:02:32;;;;;;;18.03;12.43;;;;;;;;;;2090305;28;20225;-52
2020/12/05 02:03:32;;;;;;;16.33;12.67;;;;;;;;;;2089406;28;20513;-56
2020/12/05 02:04:35;;;;;;;19.80;13.27;;;;;;;;;;2089628;28;20179;-56
2020/12/05 02:05:59;;;;;;;16.60;12.27;;;;;;;;;;2089447;28;20286;-53
2020/12/05 02:07:18;;;;;;;17.67;12.20;;;;;;;;;;2080698;28;20550;-57
2020/12/05 02:08:41;;;;;;;18.30;13.93;;;;;;;;;;2075609;28;20188;-48
2020/12/05 02:09:43;;;;;;;24.10;16.90;;;;;;;;;;2064856;28;20213;-54
2020/12/05 02:10:47;;;;;;;17.53;12.50;;;;;;;;;;2084939;28;20330;-55
2020/12/05 02:11:51;;;;;;;15.97;13.67;;;;;;;;;;2090603;28;20172;-57
2020/12/05 02:12:57;;;;;;;17.63;13.10;;;;;;;;;;2081019;28;20581;-56
2020/12/05 02:14:00;;;;;;;23.17;16.90;;;;;;;;;;2082071;28;20259;-52
2020/12/05 02:15:04;;;;;;;25.50;19.03;;;;;;;;;;2078390;28;20219;-51
2020/12/05 02:16:04;;;;;;;17.37;13.97;;;;;;;;;;2081755;28;20254;-55
2020/12/05 02:17:05;;;;;;;15.97;12.97;;;;;;;;;;2089385;28;20204;-53
2020/12/05 02:18:06;;;;;;;24.97;18.17;;;;;;;;;;2089756;28;20240;-53
2020/12/05 02:19:14;;;;;;;19.13;13.70;;;;;;;;;;2090375;28;20259;-54
2020/12/05 02:20:15;;;;;;;20.13;16.27;;;;;;;;;;2089875;28;20533;-52
2020/12/05 02:21:15;;;;;;;17.07;13.53;;;;;;;;;;2089036;28;20171;-55
2020/12/05 02:22:21;;;;;;;24.03;18.60;;;;;;;;;;2086827;28;20207;-53
2020/12/05 02:23:21;;;;;;;21.93;14.03;;;;;;;;;;2087929;28;20235;-55
2020/12/05 02:24:21;;;;;;;17.47;14.23;;;;;;;;;;2089156;28;20176;-57
2020/12/05 02:25:22;;;;;;;18.63;13.77;;;;;;;;;;2089876;28;20244;-54
2020/12/05 02:26:22;;;;;;;20.10;14.10;;;;;;;;;;2086990;28;20263;-52
2020/12/05 02:27:23;;;;;;;18.83;13.77;;;;;;;;;;2087456;28;20180;-58
2020/12/05 02:28:23;;;;;;;18.20;15.30;;;;;;;;;;2089853;28;20222;-54
2020/12/05 02:29:23;;;;;;;21.20;14.73;;;;;;;;;;2090484;28;20167;-53
2020/12/05 02:30:24;;;;;;;19.20;14.87;;;;;;;;;;2089683;28;20567;-53
2020/12/05 02:31:24;;;;;;;19.17;15.30;;;;;;;;;;2081406;28;20250;-53
2020/12/05 02:32:25;;;;;;;19.70;14.77;;;;;;;;;;2080940;28;20180;-57
2020/12/05 02:33:25;;;;;;;18.63;13.67;;;;;;;;;;2088200;28;20183;-56
2020/12/05 02:34:25;;;;;;;18.40;13.43;;;;;;;;;;2088472;28;20205;-53
2020/12/05 02:35:26;;;;;;;19.57;13.53;;;;;;;;;;2093002;22;20982;-57
2020/12/05 02:36:27;;;;;;;16.13;13.97;;;;;;;;;;2080448;28;20608;-61
2020/12/05 02:37:28;;;;;;;23.30;14.27;;;;;;;;;;2079476;28;20168;-62
2020/12/05 02:38:35;;;;;;;18.00;13.10;;;;;;;;;;2079668;28;20882;-59
2020/12/05 02:39:36;;;;;;;18.73;12.93;;;;;;;;;;2080437;28;20328;-60
2020/12/05 02:40:36;;;;;;;16.67;13.73;;;;;;;;;;2080953;28;20287;-60
2020/12/05 02:41:38;;;;;;;16.17;13.17;;;;;;;;;;2080996;28;20234;-60
2020/12/05 02:42:38;;;;;;;18.57;13.87;;;;;;;;;;2072864;28;20161;-62
2020/12/05 02:43:38;;;;;;;18.40;14.13;;;;;;;;;;2064534;28;20195;-61
2020/12/05 02:44:48;;;;;;;19.13;14.57;;;;;;;;;;2067200;28;20200;-60
2020/12/05 02:45:48;;;;;;;17.93;14.03;;;;;;;;;;2070347;28;20189;-60
2020/12/05 02:46:49;;;;;;;19.90;13.73;;;;;;;;;;2076941;28;20219;-61
2020/12/05 02:47:50;;;;;;;17.27;14.20;;;;;;;;;;2078630;28;20538;-62
2020/12/05 02:48:50;;;;;;;20.20;13.97;;;;;;;;;;2082037;28;20204;-60
2020/12/05 02:49:50;;;;;;;21.97;15.50;;;;;;;;;;2074213;28;20177;-62
2020/12/05 02:50:51;;;;;;;18.03;13.80;;;;;;;;;;2063703;28;20200;-62
2020/12/05 02:51:51;;;;;;;19.03;13.13;;;;;;;;;;2069037;28;20185;-62
2020/12/05 02:52:51;;;;;;;17.43;14.17;;;;;;;;;;2079108;28;20553;-60
2020/12/05 02:53:51;;;;;;;17.43;14.20;;;;;;;;;;2067983;28;20642;-61
2020/12/05 02:54:52;;;;;;;16.53;13.40;;;;;;;;;;2078742;28;20263;-62
2020/12/05 02:55:52;;;;;;;18.37;13.80;;;;;;;;;;2074804;28;20735;-61
2020/12/05 02:56:52;;;;;;;16.77;13.90;;;;;;;;;;2080950;28;20231;-61
2020/12/05 02:57:52;;;;;;;19.00;13.55;;;;;;;;;;2075354;28;20576;-62
2020/12/05 02:58:52;;;;;;;18.83;14.60;;;;;;;;;;2081104;28;20632;-62
2020/12/05 02:59:53;;;;;;;18.83;13.70;;;;;;;;;;2077246;28;20180;-63
2020/12/05 03:00:53;;;;;;;21.47;14.20;;;;;;;;;;2076798;28;20246;-63
2020/12/05 03:01:54;;;;;;;21.23;14.40;;;;;;;;;;2082381;28;20176;-63
2020/12/05 03:02:54;;;;;;;17.83;13.53;;;;;;;;;;2081537;28;20164;-60
2020/12/05 03:03:54;;;;;;;17.87;13.87;;;;;;;;;;2081937;28;20536;-61
2020/12/05 03:04:54;;;;;;;19.17;13.97;;;;;;;;;;2080832;28;20192;-61
2020/12/05 03:05:55;;;;;;;19.53;14.83;;;;;;;;;;2076555;28;20211;-61
2020/12/05 03:06:55;;;;;;;21.10;14.97;;;;;;;;;;2079261;28;20677;-62
2020/12/05 03:07:55;;;;;;;16.70;13.80;;;;;;;;;;2078887;28;20255;-59
2020/12/05 03:08:55;;;;;;;18.97;13.97;;;;;;;;;;2079121;28;20675;-64
2020/12/05 03:09:56;;;;;;;16.27;13.70;;;;;;;;;;2078264;28;20187;-61
2020/12/05 03:10:56;;;;;;;20.50;14.10;;;;;;;;;;2081039;28;20184;-61
2020/12/05 03:11:56;;;;;;;19.80;13.03;;;;;;;;;;2077675;28;20174;-61
2020/12/05 03:12:56;;;;;;;18.90;13.50;;;;;;;;;;2075924;28;20192;-61
2020/12/05 03:13:57;;;;;;;17.77;13.80;;;;;;;;;;2064185;28;20309;-62
2020/12/05 03:14:57;;;;;;;17.67;14.30;;;;;;;;;;2066681;28;20264;-62
2020/12/05 03:15:57;;;;;;;23.33;15.43;;;;;;;;;;2071967;28;20205;-62
2020/12/05 03:16:57;;;;;;;19.80;15.93;;;;;;;;;;2076872;28;20581;-62
2020/12/05 03:17:58;;;;;;;22.37;16.13;;;;;;;;;;2080218;28;20718;-60
2020/12/05 03:18:58;;;;;;;21.63;15.33;;;;;;;;;;2076562;28;20717;-62
2020/12/05 03:19:58;;;;;;;20.60;15.00;;;;;;;;;;2078367;28;20758;-62
2020/12/05 03:20:58;;;;;;;20.47;14.67;;;;;;;;;;2074696;28;20239;-61
2020/12/05 03:21:58;;;;;;;20.93;14.40;;;;;;;;;;2078659;28;20711;-61
2020/12/05 03:22:59;;;;;;;19.97;14.00;;;;;;;;;;2074566;28;20864;-60
2020/12/05 03:23:59;;;;;;;22.90;16.13;;;;;;;;;;2079561;28;20667;-61
2020/12/05 03:25:00;;;;;;;22.63;15.73;;;;;;;;;;2075821;28;20264;-59
2020/12/05 03:26:00;;;;;;;18.03;14.90;;;;;;;;;;2080639;28;20230;-62
2020/12/05 03:27:00;;;;;;;22.67;15.27;;;;;;;;;;2075458;28;20275;-60
2020/12/05 03:28:01;;;;;;;20.87;14.50;;;;;;;;;;2079882;28;20190;-62
2020/12/05 03:29:02;;;;;;;21.60;15.67;;;;;;;;;;2081636;28;20536;-60
2020/12/05 03:30:05;;;;;;;19.20;15.23;;;;;;;;;;2080784;28;20208;-62
2020/12/05 03:31:06;;;;;;;18.83;14.50;;;;;;;;;;2076963;28;20214;-61
2020/12/05 03:32:14;;;;;;;20.53;15.27;;;;;;;;;;2080446;28;20172;-61
2020/12/05 03:33:14;;;;;;;22.17;16.23;;;;;;;;;;2077677;28;20235;-62
2020/12/05 03:34:15;;;;;;;21.80;16.17;;;;;;;;;;2077903;28;20638;-61
2020/12/05 03:35:16;;;;;;;21.23;14.50;;;;;;;;;;2074866;28;20263;-62
2020/12/05 03:36:17;;;;;;;21.07;15.20;;;;;;;;;;2072816;28;20649;-59
2020/12/05 03:37:19;;;;;;;18.37;14.53;;;;;;;;;;2076804;28;20226;-61
2020/12/05 03:38:19;;;;;;;19.17;14.67;;;;;;;;;;2065048;28;20182;-61
2020/12/05 03:39:19;;;;;;;20.50;15.37;;;;;;;;;;2075230;28;20617;-62
2020/12/05 03:40:19;;;;;;;20.57;14.53;;;;;;;;;;2069609;28;20170;-61
2020/12/05 03:41:20;;;;;;;21.07;15.87;;;;;;;;;;2060717;28;20272;-61
2020/12/05 03:42:20;;;;;;;20.23;14.80;;;;;;;;;;2069631;28;20195;-62
2020/12/05 03:43:21;;;;;;;21.37;15.63;;;;;;;;;;2075442;28;20556;-62
2020/12/05 03:44:21;;;;;;;17.87;14.57;;;;;;;;;;2079997;28;20191;-61
2020/12/05 03:45:21;;;;;;;19.90;14.60;;;;;;;;;;2074116;28;20196;-62
2020/12/05 03:46:21;;;;;;;20.00;14.03;;;;;;;;;;2077502;28;20172;-61
2020/12/05 03:47:21;;;;;;;20.53;15.77;;;;;;;;;;2081206;28;20204;-60
2020/12/05 03:48:22;;;;;;;23.20;15.73;;;;;;;;;;2079898;28;20233;-61
2020/12/05 03:49:22;;;;;;;19.80;15.60;;;;;;;;;;2080762;28;20540;-62
2020/12/05 03:50:23;;;;;;;22.00;16.20;;;;;;;;;;2075968;28;20168;-60
2020/12/05 03:51:23;;;;;;;21.17;14.83;;;;;;;;;;2080899;28;20176;-61
2020/12/05 03:52:23;;;;;;;20.97;15.20;;;;;;;;;;2078979;28;20275;-61
2020/12/05 03:53:23;;;;;;;23.40;15.73;;;;;;;;;;2061665;28;20207;-62
2020/12/05 03:54:24;;;;;;;20.73;14.50;;;;;;;;;;2055915;28;20175;-61
2020/12/05 03:55:24;;;;;;;21.80;15.03;;;;;;;;;;2074856;28;20224;-61
2020/12/05 03:56:24;;;;;;;18.50;14.47;;;;;;;;;;2081528;28;20168;-61
2020/12/05 03:57:25;;;;;;;18.27;15.13;;;;;;;;;;2072476;28;20280;-61
2020/12/05 03:58:25;;;;;;;19.77;15.40;;;;;;;;;;2072674;28;20173;-61
2020/12/05 03:59:25;;;;;;;19.43;15.13;;;;;;;;;;2072858;28;20235;-61
2020/12/05 04:00:25;;;;;;;21.73;14.63;;;;;;;;;;2081122;28;20187;-61
2020/12/05 04:01:26;;;;;;;22.13;16.30;;;;;;;;;;2081518;28;20176;-61
2020/12/05 04:02:26;;;;;;;19.80;15.83;;;;;;;;;;2078202;28;20168;-61
2020/12/05 04:03:26;;;;;;;20.77;15.37;;;;;;;;;;2064759;28;20181;-61
2020/12/05 04:04:26;;;;;;;21.40;15.93;;;;;;;;;;2064731;28;20217;-61
2020/12/05 04:05:26;;;;;;;22.77;15.70;;;;;;;;;;2073301;28;20561;-62
2020/12/05 04:06:27;;;;;;;21.83;16.20;;;;;;;;;;2065106;28;20169;-62
2020/12/05 04:07:27;;;;;;;20.50;15.20;;;;;;;;;;2064891;28;20213;-61
2020/12/05 04:08:27;;;;;;;21.67;14.93;;;;;;;;;;2079163;28;20176;-62
2020/12/05 04:09:27;;;;;;;20.87;14.87;;;;;;;;;;2079196;28;20199;-60
2020/12/05 04:10:28;;;;;;;21.20;15.47;;;;;;;;;;2074250;28;20169;-59
2020/12/05 04:11:28;;;;;;;20.30;15.60;;;;;;;;;;2074337;28;20832;-62
2020/12/05 04:12:28;;;;;;;19.57;14.63;;;;;;;;;;2081397;28;20619;-61
2020/12/05 04:13:28;;;;;;;18.97;14.77;;;;;;;;;;2082682;28;20577;-61
2020/12/05 04:14:29;;;;;;;22.10;16.90;;;;;;;;;;2077393;28;20618;-62
2020/12/05 04:15:29;;;;;;;21.17;16.03;;;;;;;;;;2073871;28;20223;-61
2020/12/05 04:16:29;;;;;;;21.27;15.77;;;;;;;;;;2074219;28;20193;-61
2020/12/05 04:17:29;;;;;;;20.57;15.67;;;;;;;;;;2073740;28;20239;-61
2020/12/05 04:18:29;;;;;;;21.77;16.83;;;;;;;;;;2074244;28;20176;-61
2020/12/05 04:19:30;;;;;;;18.40;14.40;;;;;;;;;;2074406;28;20204;-62
2020/12/05 04:20:30;;;;;;;22.33;15.77;;;;;;;;;;2079943;28;20192;-62
2020/12/05 04:21:30;;;;;;;20.00;15.77;;;;;;;;;;2078576;28;20196;-62
2020/12/05 04:22:30;;;;;;;18.47;14.80;;;;;;;;;;2080560;28;20165;-62
2020/12/05 04:23:31;;;;;;;21.07;14.57;;;;;;;;;;2065923;28;20260;-62
2020/12/05 04:24:31;;;;;;;22.00;16.20;;;;;;;;;;2064279;28;20189;-62
2020/12/05 04:25:31;;;;;;;20.23;15.80;;;;;;;;;;2076943;28;20216;-62
2020/12/05 04:26:31;;;;;;;19.20;15.27;;;;;;;;;;2081697;28;20276;-61
2020/12/05 04:27:32;;;;;;;20.20;15.87;;;;;;;;;;2064721;28;20647;-61
2020/12/05 04:28:32;;;;;;;20.00;15.37;;;;;;;;;;2071303;28;20172;-59
2020/12/05 04:29:32;;;;;;;23.23;15.63;;;;;;;;;;2076217;28;20238;-62
2020/12/05 04:30:32;;;;;;;22.17;15.60;;;;;;;;;;2079555;28;20687;-59
2020/12/05 04:31:33;;;;;;;19.67;15.77;;;;;;;;;;2076046;28;20181;-58
2020/12/05 04:32:33;;;;;;;20.60;15.90;;;;;;;;;;2079413;28;20874;-58
2020/12/05 04:33:33;;;;;;;20.57;16.10;;;;;;;;;;2072627;28;20188;-62
2020/12/05 04:34:33;;;;;;;23.13;15.53;;;;;;;;;;2079045;28;20183;-59
2020/12/05 04:35:34;;;;;;;21.20;15.77;;;;;;;;;;2079988;28;20310;-60
2020/12/05 04:36:34;;;;;;;22.40;16.43;;;;;;;;;;2081140;28;20203;-60
2020/12/05 04:37:34;;;;;;;23.47;15.27;;;;;;;;;;2078004;28;20172;-59
2020/12/05 04:38:34;;;;;;;19.00;15.77;;;;;;;;;;2065620;28;20273;-60
2020/12/05 04:39:35;;;;;;;23.37;16.87;;;;;;;;;;2071610;28;20181;-59
2020/12/05 04:40:35;;;;;;;21.77;15.93;;;;;;;;;;2079703;28;20255;-59
2020/12/05 04:41:35;;;;;;;23.77;16.20;;;;;;;;;;2066118;28;20209;-58
2020/12/05 04:42:42;;;;;;;21.53;16.07;;;;;;;;;;2080367;28;20203;-60
2020/12/05 04:43:42;;;;;;;24.83;17.07;;;;;;;;;;2080383;28;20215;-57
2020/12/05 04:44:43;;;;;;;22.70;16.23;;;;;;;;;;2080561;28;20181;-61
2020/12/05 04:45:43;;;;;;;22.47;16.43;;;;;;;;;;2080553;28;20188;-59
2020/12/05 04:46:44;;;;;;;19.40;15.20;;;;;;;;;;2079862;28;20214;-60
2020/12/05 04:47:45;;;;;;;23.77;17.40;;;;;;;;;;2072999;28;20182;-57
2020/12/05 04:48:47;;;;;;;23.27;16.60;;;;;;;;;;2081406;28;20224;-61
2020/12/05 04:49:48;;;;;;;23.13;16.37;;;;;;;;;;2082964;28;20176;-61
2020/12/05 04:50:49;;;;;;;25.30;16.83;;;;;;;;;;2079619;28;20291;-61
2020/12/05 04:51:51;;;;;;;23.93;17.13;;;;;;;;;;2076145;28;20192;-61
2020/12/05 04:52:52;;;;;;;24.53;16.83;;;;;;;;;;2082098;28;20184;-60
2020/12/05 04:53:52;;;;;;;20.80;15.77;;;;;;;;;;2078221;28;20645;-61
2020/12/05 04:54:53;;;;;;;21.97;15.43;;;;;;;;;;2081855;28;20182;-61
2020/12/05 04:55:56;;;;;;;25.73;17.33;;;;;;;;;;2076659;28;20708;-61
2020/12/05 04:56:59;;;;;;;24.03;16.57;;;;;;;;;;2082867;28;20204;-61
2020/12/05 04:57:59;;;;;;;24.17;15.73;;;;;;;;;;2071610;28;20189;-61
2020/12/05 04:59:02;;;;;;;23.07;17.03;;;;;;;;;;2079652;28;20172;-62
2020/12/05 05:00:02;;;;;;;22.53;16.73;;;;;;;;;;2075733;28;20202;-62
2020/12/05 05:01:02;;;;;;;22.17;16.73;;;;;;;;;;2076105;28;20180;-61
2020/12/05 05:02:09;;;;;;;22.73;15.97;;;;;;;;;;2082305;28;20164;-62
2020/12/05 05:03:10;;;;;;;20.30;16.00;;;;;;;;;;2081703;28;20548;-61
2020/12/05 05:04:10;;;;;;;22.67;16.37;;;;;;;;;;2082885;28;20168;-60
2020/12/05 05:05:12;;;;;;;25.17;16.93;;;;;;;;;;2076572;28;20856;-62
2020/12/05 05:06:19;;;;;;;21.03;16.97;;;;;;;;;;2073037;28;20602;-62
2020/12/05 05:07:19;;;;;;;21.57;16.17;;;;;;;;;;2079445;28;20818;-62
2020/12/05 05:08:22;;;;;;;21.73;16.17;;;;;;;;;;2081454;28;20233;-62
2020/12/05 05:09:23;;;;;;;23.80;16.27;;;;;;;;;;2084712;28;20587;-62
2020/12/05 05:10:26;;;;;;;23.50;16.90;;;;;;;;;;2080383;28;20223;-62
2020/12/05 05:11:28;;;;;;;22.77;17.00;;;;;;;;;;2082320;28;20599;-61
2020/12/05 05:12:30;;;;;;;26.23;17.43;;;;;;;;;;2073938;28;20196;-61
2020/12/05 05:13:31;;;;;;;23.77;15.90;;;;;;;;;;2079834;28;20179;-62
2020/12/05 05:14:32;;;;;;;22.40;16.47;;;;;;;;;;2082229;28;20179;-62
2020/12/05 05:15:32;;;;;;;24.27;16.40;;;;;;;;;;2082673;28;20180;-62
2020/12/05 05:16:33;;;;;;;22.73;16.23;;;;;;;;;;2082142;28;20622;-63
2020/12/05 05:17:33;;;;;;;22.13;16.77;;;;;;;;;;2081008;28;20172;-60
2020/12/05 05:18:33;;;;;;;19.60;15.20;;;;;;;;;;2072211;28;20177;-62
2020/12/05 05:19:35;;;;;;;24.73;18.40;;;;;;;;;;2066090;28;20177;-61
2020/12/05 05:20:40;;;;;;;23.83;17.33;;;;;;;;;;2077203;28;20180;-61
2020/12/05 05:21:40;;;;;;;22.87;16.87;;;;;;;;;;2079691;28;20208;-62
2020/12/05 05:22:40;;;;;;;21.13;16.60;;;;;;;;;;2074465;28;20169;-62
2020/12/05 05:23:41;;;;;;;22.90;16.97;;;;;;;;;;2078662;28;20727;-63
2020/12/05 05:24:58;;;;;;;24.20;17.33;;;;;;;;;;2082196;28;20200;-63
2020/12/05 05:26:02;;;;;;;24.33;17.20;;;;;;;;;;2079339;28;20599;-63
2020/12/05 05:27:06;;;;;;;21.97;16.23;;;;;;;;;;2081825;28;20180;-63
2020/12/05 05:28:07;;;;;;;22.33;16.87;;;;;;;;;;2080750;28;20676;-63
2020/12/05 05:29:23;;;;;;;22.57;16.77;;;;;;;;;;2070444;28;20197;-62
2020/12/05 05:30:24;;;;;;;22.87;16.13;;;;;;;;;;2070784;28;20188;-62
2020/12/05 05:31:41;;;;;;;27.43;17.27;;;;;;;;;;2075637;28;20263;-63
2020/12/05 05:32:48;;;;;;;23.77;17.33;;;;;;;;;;2074640;28;20172;-62
2020/12/05 05:33:50;;;;;;;23.77;17.80;;;;;;;;;;2071234;28;20681;-62
2020/12/05 05:34:50;;;;;;;25.70;18.33;;;;;;;;;;2080284;28;20581;-62
2020/12/05 05:35:50;;;;;;;27.13;17.93;;;;;;;;;;2077631;28;20244;-63
2020/12/05 05:36:51;;;;;;;26.27;18.87;;;;;;;;;;2081859;28;20310;-63
2020/12/05 05:37:51;;;;;;;23.87;17.03;;;;;;;;;;2081674;28;20184;-63
2020/12/05 05:39:01;;;;;;;27.07;19.87;;;;;;;;;;2074737;28;20177;-62
2020/12/05 05:40:02;;;;;;;27.87;18.37;;;;;;;;;;2080447;28;20188;-63
2020/12/05 05:41:11;;;;;;;24.83;18.77;;;;;;;;;;2080712;28;20176;-62
2020/12/05 05:42:11;;;;;;;25.20;17.63;;;;;;;;;;2076164;28;20180;-62
2020/12/05 05:43:15;;;;;;;25.23;18.57;;;;;;;;;;2075734;28;20204;-62
2020/12/05 05:44:17;;;;;;;26.77;19.17;;;;;;;;;;2082163;28;20169;-62
2020/12/05 05:45:19;;;;;;;27.97;18.97;;;;;;;;;;2081554;28;20261;-63
2020/12/05 05:46:23;;;;;;;24.40;18.77;;;;;;;;;;2075305;28;20177;-64
2020/12/05 05:47:23;;;;;;;24.73;18.30;;;;;;;;;;2075699;28;20214;-62
2020/12/05 05:48:24;;;;;;;25.07;17.90;;;;;;;;;;2080616;28;20168;-62
2020/12/05 05:49:29;;;;;;;24.70;18.17;;;;;;;;;;2080302;28;20771;-62
2020/12/05 05:50:31;;;;;;;26.07;18.63;;;;;;;;;;2074525;28;20189;-59
2020/12/05 05:51:38;;;;;;;29.43;20.23;;;;;;;;;;2076075;28;20230;-62
2020/12/05 05:52:40;;;;;;;30.33;21.20;;;;;;;;;;2077359;28;20173;-62
2020/12/05 05:53:40;;;;;;;29.63;20.73;;;;;;;;;;2082572;28;20172;-60
2020/12/05 05:54:40;;;;;;;35.27;21.70;;;;;;;;;;2081491;28;20160;-62
2020/12/05 05:55:42;;;;;;;30.07;21.13;;;;;;;;;;2077471;28;20200;-62